Webcam

2019/12/15 19:50 EBBR 151950Z 18009KT CAVOK 06/02 Q1005 NOSIG

Webcam

--- Refresh now ---